Time;durP1;ratioP1;P1;durP2;ratioP2;P2;SDS_P1;SDS_P2;PMS_P1;PMS_P2;Temp;Humidity;BMP_temperature;BMP_pressure;BME280_temperature;BME280_humidity;BME280_pressure;Samples;Min_cycle;Max_cycle;Signal;HPM_P1;HPM_P2
2021/12/17 00:16:38;;;;;;;12.28;8.08;;;;;;;3.44;74.80;95097.19;831064;71;31796;-79
2021/12/17 01:02:08;;;;;;;;;;;;;;;;;;;;;
2021/12/17 01:16:52;;;;;;;8.88;6.90;;;;;;;3.59;72.37;95087.14;807784;72;32273;-78
2021/12/17 01:46:16;;;;;;;7.10;5.00;;;;;;;3.53;70.47;95051.73;825947;71;29344;-79
2021/12/17 02:01:44;;;;;;;8.00;5.35;;;;;;;3.47;70.40;95048.77;820567;71;31868;-77
2021/12/17 02:31:30;;;;;;;5.30;4.80;;;;;;;3.56;70.39;95043.48;831795;71;31770;-78
2021/12/17 02:46:17;;;;;;;6.28;5.40;;;;;;;3.66;70.50;95039.52;828871;71;30267;-79
2021/12/17 03:16:37;;;;;;;7.80;5.97;;;;;;;3.85;71.39;95044.80;815833;71;32932;-78
2021/12/17 03:31:21;;;;;;;7.80;6.17;;;;;;;3.92;72.05;95032.48;833937;71;32726;-75
2021/12/17 04:01:43;;;;;;;9.25;6.70;;;;;;;3.96;75.15;95006.34;833802;71;31757;-79
2021/12/17 04:16:35;;;;;;;12.05;8.18;;;;;;;3.75;75.82;94953.30;833430;71;33110;-79
2021/12/17 04:31:55;;;;;;;8.05;6.62;;;;;;;3.72;76.95;94916.64;827092;71;32659;-78
2021/12/17 05:31:09;;;;;;;5.40;4.10;;;;;;;4.14;77.77;94952.12;820002;71;29769;-86
2021/12/17 05:46:12;;;;;;;4.40;4.00;;;;;;;4.33;77.33;94922.80;792781;74;30465;-80
2021/12/17 06:01:09;;;;;;;5.10;4.55;;;;;;;4.35;77.03;94939.45;826899;71;29754;-82
2021/12/17 06:16:10;;;;;;;6.65;4.37;;;;;;;4.41;75.99;94966.55;821087;71;29961;-85
2021/12/17 06:31:13;;;;;;;3.80;3.50;;;;;;;4.44;75.34;94970.52;819473;71;32226;-84
2021/12/17 06:46:23;;;;;;;4.03;3.70;;;;;;;4.45;77.09;94964.80;833978;71;33262;-85
2021/12/17 07:46:12;;;;;;;5.78;5.17;;;;;;;4.37;79.91;94949.09;830092;71;29773;-80
2021/12/17 08:01:14;;;;;;;9.40;6.37;;;;;;;4.42;80.66;94959.57;833759;71;32930;-81
2021/12/17 08:16:28;;;;;;;9.33;7.53;;;;;;;4.45;81.22;94978.56;828366;71;29631;-81
2021/12/17 08:31:15;;;;;;;7.90;7.10;;;;;;;4.50;80.91;94950.08;819587;71;32811;-83
2021/12/17 08:46:08;;;;;;;7.17;6.35;;;;;;;4.65;80.26;94948.72;819748;71;29812;-79
2021/12/17 09:01:11;;;;;;;8.88;7.15;;;;;;;4.75;79.67;94924.95;821219;71;31944;-82
2021/12/17 09:16:08;;;;;;;8.23;6.90;;;;;;;4.88;79.25;94921.20;828925;71;29668;-81
2021/12/17 09:31:12;;;;;;;11.03;8.13;;;;;;;4.99;78.91;94900.81;828506;71;29715;-81
2021/12/17 09:46:15;;;;;;;8.83;7.72;;;;;;;5.06;79.21;94885.55;827402;71;32639;-82
2021/12/17 10:01:14;;;;;;;11.53;9.60;;;;;;;5.15;79.08;94850.26;820001;71;32759;-80
2021/12/17 10:16:12;;;;;;;11.63;8.00;;;;;;;5.32;79.06;94828.86;828663;71;29652;-81
2021/12/17 10:31:11;;;;;;;9.50;8.33;;;;;;;5.57;78.10;94794.98;834447;71;31373;-80
2021/12/17 10:46:22;;;;;;;8.30;6.30;;;;;;;5.67;77.04;94763.04;828237;71;30137;-79
2021/12/17 11:01:09;;;;;;;6.80;6.17;;;;;;;5.78;76.23;94762.87;828065;71;29653;-81
2021/12/17 11:16:09;;;;;;;8.25;7.22;;;;;;;5.67;76.98;94763.04;829025;71;29664;-81
2021/12/17 11:31:09;;;;;;;8.30;6.90;;;;;;;5.63;78.47;94730.21;834653;71;29753;-85
2021/12/17 11:46:13;;;;;;;7.33;6.30;;;;;;;5.59;78.15;94714.30;794693;74;30372;-81
2021/12/17 12:01:10;;;;;;;7.33;6.62;;;;;;;5.47;78.62;94696.01;828235;71;30300;-82
2021/12/17 12:16:11;;;;;;;6.15;5.30;;;;;;;5.25;77.85;94686.52;828419;71;29719;-82
2021/12/17 12:31:35;;;;;;;6.20;5.62;;;;;;;5.09;76.96;94645.78;834277;71;32839;-82
2021/12/17 12:46:09;;;;;;;6.28;5.45;;;;;;;4.84;75.61;94608.16;834050;71;29645;-80
2021/12/17 13:01:13;;;;;;;5.22;4.72;;;;;;;4.82;74.87;94631.03;824508;71;29725;-84
2021/12/17 13:31:12;;;;;;;4.50;4.15;;;;;;;4.79;72.94;94635.44;828143;71;32044;-81
2021/12/17 13:46:08;;;;;;;5.45;4.72;;;;;;;4.73;71.46;94641.63;833822;71;29731;-80
2021/12/17 14:01:08;;;;;;;5.83;4.97;;;;;;;4.69;71.18;94627.55;828870;71;29705;-81
2021/12/17 14:16:09;;;;;;;6.75;4.92;;;;;;;4.74;71.12;94615.36;827964;71;30377;-82
2021/12/17 14:31:19;;;;;;;4.83;4.20;;;;;;;4.72;71.02;94641.34;829416;71;29787;-81
2021/12/17 14:46:19;;;;;;;4.40;4.00;;;;;;;4.54;70.68;94624.28;828220;71;30331;-81
2021/12/17 15:01:28;;;;;;;5.78;4.67;;;;;;;4.43;71.26;94665.50;834357;71;29697;-79
2021/12/17 15:16:34;;;;;;;6.00;5.20;;;;;;;4.32;71.79;94683.58;834696;71;33260;-79
2021/12/17 15:31:10;;;;;;;6.12;5.50;;;;;;;4.08;72.51;94680.96;828434;71;30845;-78
2021/12/17 16:01:16;;;;;;;6.75;5.55;;;;;;;3.74;74.31;94708.30;834257;71;32801;-78
2021/12/17 16:31:18;;;;;;;7.72;5.97;;;;;;;3.69;75.14;94722.48;827991;71;30499;-78
2021/12/17 17:01:09;;;;;;;13.18;8.80;;;;;;;3.58;77.11;94751.40;828047;71;29660;-79
2021/12/17 17:17:09;;;;;;;;;;;;;;;;;;;;;
2021/12/17 17:31:24;;;;;;;14.30;10.45;;;;;;;2.88;80.05;94691.20;828837;71;31427;-79
2021/12/17 18:01:17;;;;;;;15.93;11.28;;;;;;;3.18;80.34;94771.77;827613;71;32739;-79
2021/12/17 18:16:15;;;;;;;16.97;11.50;;;;;;;3.20;79.75;94769.73;827437;71;32766;-76
2021/12/17 18:31:16;;;;;;;19.77;13.28;;;;;;;3.19;79.77;94765.06;833821;71;30853;-79
2021/12/17 18:46:17;;;;;;;17.42;11.70;;;;;;;3.15;80.24;94765.25;834271;71;33304;-80
2021/12/17 19:01:15;;;;;;;21.15;13.40;;;;;;;2.75;80.05;94725.17;830033;71;32710;-80
2021/12/17 19:46:22;;;;;;;18.20;12.63;;;;;;;3.09;78.90;94755.04;827218;71;33228;-78
2021/12/17 20:01:16;;;;;;;22.90;13.68;;;;;;;3.01;79.57;94768.64;816922;71;33510;-77
2021/12/17 20:16:39;;;;;;;22.15;15.00;;;;;;;3.01;79.64;94766.56;813163;71;30468;-78
2021/12/17 20:31:14;;;;;;;23.65;14.87;;;;;;;2.64;78.76;94711.27;822833;71;29751;-79
2021/12/17 20:46:10;;;;;;;21.37;14.55;;;;;;;3.03;78.12;94765.83;820632;71;31029;-77
2021/12/17 21:01:20;;;;;;;21.40;14.70;;;;;;;3.03;77.61;94754.68;817365;71;33300;-80
2021/12/17 21:16:10;;;;;;;16.50;11.57;;;;;;;3.02;76.61;94753.87;834296;71;30214;-78
2021/12/17 21:31:16;;;;;;;18.25;11.70;;;;;;;3.00;75.56;94739.88;819668;71;32920;-81
2021/12/17 21:46:16;;;;;;;17.85;10.93;;;;;;;2.95;75.05;94737.70;827774;71;32832;-77
2021/12/17 22:01:10;;;;;;;16.45;9.95;;;;;;;2.90;75.06;94742.78;820512;71;29870;-79
2021/12/17 22:16:10;;;;;;;12.95;8.85;;;;;;;2.86;75.03;94724.34;827910;71;30335;-79
2021/12/17 22:31:15;;;;;;;13.98;9.13;;;;;;;2.74;74.90;94715.84;825287;71;32778;-76
2021/12/17 22:46:10;;;;;;;13.75;9.08;;;;;;;2.75;74.24;94697.45;828116;71;29817;-80
2021/12/17 23:01:18;;;;;;;15.58;9.90;;;;;;;2.73;73.78;94685.23;822381;71;32018;-78
2021/12/17 23:16:12;;;;;;;17.30;11.35;;;;;;;2.64;73.71;94673.70;798507;73;31786;-77
2021/12/17 23:31:09;;;;;;;13.93;9.95;;;;;;;2.60;73.66;94675.97;827184;71;30352;-80
2021/12/17 23:46:09;;;;;;;13.95;9.03;;;;;;;2.42;73.66;94646.39;819444;71;30285;-80
